KUKT/UKT METAR and TAF weather

Enter ICAO airport designator
Station Type Date Time Source
KUKT METAR 2022/12/04 04:15 UTC NOAA

KUKT 040415Z AUTO VRB05KT 10SM CLR 05/M03 A3019 RMK A01


Station Type Date Time Source
KUKT Decoded METAR 2022/12/04 04:15 UTC NOAA

Quakertown, Quakertown Airport, PA, United States (KUKT) 40-26-06N 075-22-54W
Dec 03, 2022 - 11:15 PM EST / 2022.12.04 0415 UTC
Wind: Variable at 6 MPH (5 KT):0
Visibility: 10 mile(s):0
Sky conditions: clear
Temperature: 41 F (5 C)
Dew Point: 26 F (-3 C)
Relative Humidity: 56%
Pressure (altimeter): 30.19 in. Hg (1022 hPa)
ob: KUKT 040415Z AUTO VRB05KT 10SM CLR 05/M03 A3019 RMK A01
cycle: 4

Station Type Date Time Source
KUKT TAF UTC NOAA

Error!

Example: see airport list